sensor_id;sensor_type;location;lat;lon;timestamp;pressure;altitude;pressure_sealevel;temperature;humidity
53932;BME280;39844;52.496;13.482;2023-02-14T00:01:23;103572.97;;;6.13;74.26
53932;BME280;39844;52.496;13.482;2023-02-14T00:03:48;103577.19;;;6.11;73.99
53932;BME280;39844;52.496;13.482;2023-02-14T00:06:14;103581.50;;;6.11;74.05
53932;BME280;39844;52.496;13.482;2023-02-14T00:08:40;103586.72;;;6.11;74.06
53932;BME280;39844;52.496;13.482;2023-02-14T00:11:06;103586.72;;;6.11;74.11
53932;BME280;39844;52.496;13.482;2023-02-14T00:13:31;103574.50;;;6.10;74.48
53932;BME280;39844;52.496;13.482;2023-02-14T00:15:56;103571.78;;;6.08;74.24
53932;BME280;39844;52.496;13.482;2023-02-14T00:18:22;103570.00;;;6.07;73.73
53932;BME280;39844;52.496;13.482;2023-02-14T00:20:47;103571.72;;;6.07;74.03
53932;BME280;39844;52.496;13.482;2023-02-14T00:23:12;103587.34;;;6.07;74.61
53932;BME280;39844;52.496;13.482;2023-02-14T00:25:38;103577.00;;;6.08;74.74
53932;BME280;39844;52.496;13.482;2023-02-14T00:28:03;103579.41;;;6.05;74.32
53932;BME280;39844;52.496;13.482;2023-02-14T00:30:29;103582.84;;;6.04;75.06
53932;BME280;39844;52.496;13.482;2023-02-14T00:32:54;103583.66;;;6.03;74.60
53932;BME280;39844;52.496;13.482;2023-02-14T00:35:19;103578.44;;;6.03;74.68
53932;BME280;39844;52.496;13.482;2023-02-14T00:37:51;103566.22;;;6.02;74.79
53932;BME280;39844;52.496;13.482;2023-02-14T00:40:16;103575.63;;;6.00;74.53
53932;BME280;39844;52.496;13.482;2023-02-14T00:42:41;103566.03;;;5.99;74.58
53932;BME280;39844;52.496;13.482;2023-02-14T00:45:07;103580.78;;;5.99;75.30
53932;BME280;39844;52.496;13.482;2023-02-14T00:47:32;103572.88;;;5.97;74.75
53932;BME280;39844;52.496;13.482;2023-02-14T00:49:57;103572.03;;;5.98;75.26
53932;BME280;39844;52.496;13.482;2023-02-14T00:52:23;103572.88;;;5.97;74.76
53932;BME280;39844;52.496;13.482;2023-02-14T00:58:19;103571.97;;;5.97;74.82
53932;BME280;39844;52.496;13.482;2023-02-14T01:00:44;103573.59;;;5.95;74.45
53932;BME280;39844;52.496;13.482;2023-02-14T01:03:09;103565.75;;;5.95;73.90
53932;BME280;39844;52.496;13.482;2023-02-14T01:05:34;103568.44;;;5.96;74.12
53932;BME280;39844;52.496;13.482;2023-02-14T01:08:00;103565.84;;;5.96;74.33
53932;BME280;39844;52.496;13.482;2023-02-14T01:10:25;103561.53;;;5.97;74.18
53932;BME280;39844;52.496;13.482;2023-02-14T01:12:50;103560.56;;;5.95;73.93
53932;BME280;39844;52.496;13.482;2023-02-14T01:15:16;103558.81;;;5.95;73.92
53932;BME280;39844;52.496;13.482;2023-02-14T01:17:41;103551.91;;;5.96;74.01
53932;BME280;39844;52.496;13.482;2023-02-14T01:20:07;103550.91;;;5.94;73.78
53932;BME280;39844;52.496;13.482;2023-02-14T01:31:40;103549.81;;;5.90;74.71
53932;BME280;39844;52.496;13.482;2023-02-14T01:34:06;103554.16;;;5.90;75.17
53932;BME280;39844;52.496;13.482;2023-02-14T01:36:34;103549.81;;;5.90;74.95
53932;BME280;39844;52.496;13.482;2023-02-14T01:39:03;103549.75;;;5.89;75.22
53932;BME280;39844;52.496;13.482;2023-02-14T01:41:33;103538.41;;;5.88;75.04
53932;BME280;39844;52.496;13.482;2023-02-14T01:44:05;103538.41;;;5.88;74.76
53932;BME280;39844;52.496;13.482;2023-02-14T01:46:36;103538.41;;;5.88;74.83
53932;BME280;39844;52.496;13.482;2023-02-14T01:49:05;103534.03;;;5.87;74.81
53932;BME280;39844;52.496;13.482;2023-02-14T01:51:33;103534.03;;;5.87;74.27
53932;BME280;39844;52.496;13.482;2023-02-14T01:54:00;103527.00;;;5.86;74.59
53932;BME280;39844;52.496;13.482;2023-02-14T01:56:30;103527.91;;;5.87;74.71
53932;BME280;39844;52.496;13.482;2023-02-14T01:59:00;103529.69;;;5.88;75.15
53932;BME280;39844;52.496;13.482;2023-02-14T02:01:28;103526.09;;;5.86;75.36
53932;BME280;39844;52.496;13.482;2023-02-14T02:03:55;103529.59;;;5.86;75.93
53932;BME280;39844;52.496;13.482;2023-02-14T02:06:25;103526.91;;;5.85;74.99
53932;BME280;39844;52.496;13.482;2023-02-14T02:11:27;103538.03;;;5.82;75.83
53932;BME280;39844;52.496;13.482;2023-02-14T02:13:54;103530.22;;;5.82;75.98
53932;BME280;39844;52.496;13.482;2023-02-14T02:31:20;103542.06;;;5.77;75.99
53932;BME280;39844;52.496;13.482;2023-02-14T02:39:51;103535.75;;;5.73;77.17
53932;BME280;39844;52.496;13.482;2023-02-14T02:45:02;103528.72;;;5.72;77.97
53932;BME280;39844;52.496;13.482;2023-02-14T02:47:43;103537.25;;;5.70;78.81
53932;BME280;39844;52.496;13.482;2023-02-14T02:50:42;103542.28;;;5.67;79.31
53932;BME280;39844;52.496;13.482;2023-02-14T02:56:08;103536.91;;;5.64;79.73
53932;BME280;39844;52.496;13.482;2023-02-14T02:58:40;103538.59;;;5.63;80.21
53932;BME280;39844;52.496;13.482;2023-02-14T03:01:19;103537.69;;;5.63;80.44
53932;BME280;39844;52.496;13.482;2023-02-14T03:03:47;103538.50;;;5.62;80.66
53932;BME280;39844;52.496;13.482;2023-02-14T03:06:14;103534.09;;;5.61;80.54
53932;BME280;39844;52.496;13.482;2023-02-14T03:08:39;103535.88;;;5.62;80.86
53932;BME280;39844;52.496;13.482;2023-02-14T03:11:04;103541.09;;;5.62;81.04
53932;BME280;39844;52.496;13.482;2023-02-14T03:13:57;103535.00;;;5.61;81.33
53932;BME280;39844;52.496;13.482;2023-02-14T03:21:55;103539.84;;;5.55;79.41
53932;BME280;39844;52.496;13.482;2023-02-14T03:24:45;103536.44;;;5.56;79.78
53932;BME280;39844;52.496;13.482;2023-02-14T03:27:21;103528.50;;;5.55;79.34
53932;BME280;39844;52.496;13.482;2023-02-14T03:30:07;103531.22;;;5.56;78.36
53932;BME280;39844;52.496;13.482;2023-02-14T03:32:58;103529.50;;;5.57;78.50
53932;BME280;39844;52.496;13.482;2023-02-14T03:35:51;103533.00;;;5.57;78.64
53932;BME280;39844;52.496;13.482;2023-02-14T03:38:30;103536.53;;;5.58;78.92
53932;BME280;39844;52.496;13.482;2023-02-14T03:41:02;103528.69;;;5.58;79.13
53932;BME280;39844;52.496;13.482;2023-02-14T03:43:35;103533.13;;;5.59;79.69
53932;BME280;39844;52.496;13.482;2023-02-14T03:48:46;103527.00;;;5.58;80.27
53932;BME280;39844;52.496;13.482;2023-02-14T03:51:14;103526.09;;;5.58;80.81
53932;BME280;39844;52.496;13.482;2023-02-14T03:53:44;103527.72;;;5.56;80.68
53932;BME280;39844;52.496;13.482;2023-02-14T03:56:21;103533.72;;;5.55;81.39
53932;BME280;39844;52.496;13.482;2023-02-14T03:58:54;103529.34;;;5.54;81.43
53932;BME280;39844;52.496;13.482;2023-02-14T04:01:33;103532.72;;;5.53;81.40
53932;BME280;39844;52.496;13.482;2023-02-14T04:04:00;103520.41;;;5.50;81.01
53932;BME280;39844;52.496;13.482;2023-02-14T04:06:27;103519.50;;;5.50;80.61
53932;BME280;39844;52.496;13.482;2023-02-14T04:08:52;103523.81;;;5.49;80.32
53932;BME280;39844;52.496;13.482;2023-02-14T04:11:17;103515.91;;;5.48;80.08
53932;BME280;39844;52.496;13.482;2023-02-14T04:13:43;103521.03;;;5.46;79.06
53932;BME280;39844;52.496;13.482;2023-02-14T04:16:08;103525.34;;;5.46;78.64
53932;BME280;39844;52.496;13.482;2023-02-14T04:18:33;103522.75;;;5.46;78.83
53932;BME280;39844;52.496;13.482;2023-02-14T04:20:58;103523.81;;;5.49;79.62
53932;BME280;39844;52.496;13.482;2023-02-14T04:23:24;103529.13;;;5.51;80.21
53932;BME280;39844;52.496;13.482;2023-02-14T04:25:49;103522.13;;;5.50;79.48
53932;BME280;39844;52.496;13.482;2023-02-14T04:28:15;103521.13;;;5.48;78.37
53932;BME280;39844;52.496;13.482;2023-02-14T04:30:40;103514.94;;;5.46;78.81
53932;BME280;39844;52.496;13.482;2023-02-14T04:33:05;103520.94;;;5.45;77.89
53932;BME280;39844;52.496;13.482;2023-02-14T04:35:31;103515.72;;;5.45;77.73
53932;BME280;39844;52.496;13.482;2023-02-14T04:37:56;103524.44;;;5.45;77.51
53932;BME280;39844;52.496;13.482;2023-02-14T04:40:21;103519.25;;;5.45;77.56
53932;BME280;39844;52.496;13.482;2023-02-14T04:42:46;103518.44;;;5.46;77.25
53932;BME280;39844;52.496;13.482;2023-02-14T04:45:12;103513.13;;;5.45;77.03
53932;BME280;39844;52.496;13.482;2023-02-14T04:47:38;103508.72;;;5.44;76.90
53932;BME280;39844;52.496;13.482;2023-02-14T04:50:03;103507.91;;;5.45;76.91
53932;BME280;39844;52.496;13.482;2023-02-14T04:52:29;103511.41;;;5.45;76.84
53932;BME280;39844;52.496;13.482;2023-02-14T04:54:54;103506.22;;;5.45;77.05
53932;BME280;39844;52.496;13.482;2023-02-14T04:57:19;103506.28;;;5.47;77.59
53932;BME280;39844;52.496;13.482;2023-02-14T04:59:45;103504.59;;;5.47;77.82
53932;BME280;39844;52.496;13.482;2023-02-14T05:02:10;103499.31;;;5.46;77.40
53932;BME280;39844;52.496;13.482;2023-02-14T05:04:35;103495.88;;;5.47;77.50
53932;BME280;39844;52.496;13.482;2023-02-14T05:07:01;103499.38;;;5.47;78.01
53932;BME280;39844;52.496;13.482;2023-02-14T05:09:26;103501.00;;;5.45;76.99
53932;BME280;39844;52.496;13.482;2023-02-14T05:11:51;103493.09;;;5.44;76.83
53932;BME280;39844;52.496;13.482;2023-02-14T05:14:17;103497.50;;;5.45;76.88
53932;BME280;39844;52.496;13.482;2023-02-14T05:16:42;103500.00;;;5.43;76.40
53932;BME280;39844;52.496;13.482;2023-02-14T05:19:07;103499.19;;;5.44;76.43
53932;BME280;39844;52.496;13.482;2023-02-14T05:21:33;103493.97;;;5.44;77.05
53932;BME280;39844;52.496;13.482;2023-02-14T05:24:01;103491.38;;;5.44;77.53
53932;BME280;39844;52.496;13.482;2023-02-14T05:26:26;103489.69;;;5.45;77.89
53932;BME280;39844;52.496;13.482;2023-02-14T05:28:52;103487.91;;;5.44;77.78
53932;BME280;39844;52.496;13.482;2023-02-14T05:31:17;103489.59;;;5.43;77.94
53932;BME280;39844;52.496;13.482;2023-02-14T05:33:42;103482.69;;;5.44;78.17
53932;BME280;39844;52.496;13.482;2023-02-14T05:36:08;103492.09;;;5.42;78.18
53932;BME280;39844;52.496;13.482;2023-02-14T05:38:34;103489.47;;;5.42;78.73
53932;BME280;39844;52.496;13.482;2023-02-14T05:41:00;103492.00;;;5.40;78.35
53932;BME280;39844;52.496;13.482;2023-02-14T05:43:25;103489.31;;;5.39;78.61
53932;BME280;39844;52.496;13.482;2023-02-14T05:45:51;103492.72;;;5.38;78.68
53932;BME280;39844;52.496;13.482;2023-02-14T05:48:16;103481.31;;;5.36;78.01
53932;BME280;39844;52.496;13.482;2023-02-14T05:50:42;103492.44;;;5.33;77.59
53932;BME280;39844;52.496;13.482;2023-02-14T05:53:08;103491.63;;;5.34;78.32
53932;BME280;39844;52.496;13.482;2023-02-14T05:55:33;103489.13;;;5.36;78.33
53932;BME280;39844;52.496;13.482;2023-02-14T05:57:58;103487.31;;;5.35;78.11
53932;BME280;39844;52.496;13.482;2023-02-14T06:00:24;103492.53;;;5.35;78.52
53932;BME280;39844;52.496;13.482;2023-02-14T06:02:49;103482.09;;;5.35;78.22
53932;BME280;39844;52.496;13.482;2023-02-14T06:05:15;103482.09;;;5.35;78.02
53932;BME280;39844;52.496;13.482;2023-02-14T06:07:40;103489.13;;;5.36;77.45
53932;BME280;39844;52.496;13.482;2023-02-14T06:10:06;103488.22;;;5.35;77.07
53932;BME280;39844;52.496;13.482;2023-02-14T06:12:31;103485.69;;;5.37;78.45
53932;BME280;39844;52.496;13.482;2023-02-14T06:14:57;103490.91;;;5.37;78.00
53932;BME280;39844;52.496;13.482;2023-02-14T06:17:22;103488.31;;;5.37;77.91
53932;BME280;39844;52.496;13.482;2023-02-14T06:19:47;103491.81;;;5.37;77.92
53932;BME280;39844;52.496;13.482;2023-02-14T06:22:12;103492.72;;;5.38;77.40
53932;BME280;39844;52.496;13.482;2023-02-14T06:24:38;103495.31;;;5.38;77.72
53932;BME280;39844;52.496;13.482;2023-02-14T06:27:03;103490.13;;;5.38;77.02
53932;BME280;39844;52.496;13.482;2023-02-14T06:29:28;103493.63;;;5.38;77.40
53932;BME280;39844;52.496;13.482;2023-02-14T06:31:54;103493.63;;;5.38;77.83
53932;BME280;39844;52.496;13.482;2023-02-14T06:34:19;103497.13;;;5.39;78.18
53932;BME280;39844;52.496;13.482;2023-02-14T06:36:44;103495.41;;;5.39;78.64
53932;BME280;39844;52.496;13.482;2023-02-14T06:39:10;103495.41;;;5.39;78.94
53932;BME280;39844;52.496;13.482;2023-02-14T06:41:35;103502.44;;;5.40;79.23
53932;BME280;39844;52.496;13.482;2023-02-14T06:44:00;103500.63;;;5.39;78.72
53932;BME280;39844;52.496;13.482;2023-02-14T06:46:25;103491.09;;;5.40;79.60
53932;BME280;39844;52.496;13.482;2023-02-14T06:48:51;103493.69;;;5.40;79.47
53932;BME280;39844;52.496;13.482;2023-02-14T06:51:16;103492.00;;;5.40;80.01
53932;BME280;39844;52.496;13.482;2023-02-14T06:53:41;103492.00;;;5.40;79.95
53932;BME280;39844;52.496;13.482;2023-02-14T06:56:07;103498.13;;;5.41;80.36
53932;BME280;39844;52.496;13.482;2023-02-14T06:58:32;103492.09;;;5.42;80.17
53932;BME280;39844;52.496;13.482;2023-02-14T07:00:58;103497.41;;;5.43;79.92
53932;BME280;39844;52.496;13.482;2023-02-14T07:03:24;103490.38;;;5.42;80.06
53932;BME280;39844;52.496;13.482;2023-02-14T07:05:50;103497.41;;;5.43;79.82
53932;BME280;39844;52.496;13.482;2023-02-14T07:08:15;103495.72;;;5.44;79.94
53932;BME280;39844;52.496;13.482;2023-02-14T07:10:41;103485.38;;;5.45;79.90
53932;BME280;39844;52.496;13.482;2023-02-14T07:13:06;103490.78;;;5.48;79.68
53932;BME280;39844;52.496;13.482;2023-02-14T07:15:31;103496.97;;;5.50;79.67
53932;BME280;39844;52.496;13.482;2023-02-14T07:17:57;103486.63;;;5.52;80.53
53932;BME280;39844;52.496;13.482;2023-02-14T07:20:22;103493.66;;;5.53;80.64
53932;BME280;39844;52.496;13.482;2023-02-14T07:22:47;103488.44;;;5.53;80.76
53932;BME280;39844;52.496;13.482;2023-02-14T07:25:13;103485.91;;;5.54;80.76
53932;BME280;39844;52.496;13.482;2023-02-14T07:27:39;103480.81;;;5.56;81.02
53932;BME280;39844;52.496;13.482;2023-02-14T07:30:06;103493.03;;;5.57;80.50
53932;BME280;39844;52.496;13.482;2023-02-14T07:32:32;103497.34;;;5.56;79.63
53932;BME280;39844;52.496;13.482;2023-02-14T07:34:58;103493.13;;;5.58;79.04
53932;BME280;39844;52.496;13.482;2023-02-14T07:37:23;103500.31;;;5.62;79.50
53932;BME280;39844;52.496;13.482;2023-02-14T07:39:48;103501.41;;;5.66;79.88
53932;BME280;39844;52.496;13.482;2023-02-14T07:42:13;103500.69;;;5.68;80.21
53932;BME280;39844;52.496;13.482;2023-02-14T07:44:39;103495.69;;;5.71;80.60
53932;BME280;39844;52.496;13.482;2023-02-14T07:47:05;103499.34;;;5.75;80.55
53932;BME280;39844;52.496;13.482;2023-02-14T07:49:31;103490.72;;;5.76;80.06
53932;BME280;39844;52.496;13.482;2023-02-14T07:51:56;103487.31;;;5.77;78.72
53932;BME280;39844;52.496;13.482;2023-02-14T07:54:21;103486.44;;;5.77;77.93
53932;BME280;39844;52.496;13.482;2023-02-14T07:56:47;103490.91;;;5.79;77.74
53932;BME280;39844;52.496;13.482;2023-02-14T07:59:12;103485.78;;;5.81;76.72
53932;BME280;39844;52.496;13.482;2023-02-14T08:01:37;103486.88;;;5.84;76.98
53932;BME280;39844;52.496;13.482;2023-02-14T08:04:03;103485.22;;;5.85;75.92
53932;BME280;39844;52.496;13.482;2023-02-14T08:06:28;103489.72;;;5.87;75.83
53932;BME280;39844;52.496;13.482;2023-02-14T08:08:53;103497.69;;;5.90;76.06
53932;BME280;39844;52.496;13.482;2023-02-14T08:11:19;103496.97;;;5.93;75.51
53932;BME280;39844;52.496;13.482;2023-02-14T08:13:44;103490.16;;;5.95;75.64
53932;BME280;39844;52.496;13.482;2023-02-14T08:16:09;103496.44;;;5.98;75.54
53932;BME280;39844;52.496;13.482;2023-02-14T08:18:37;103499.16;;;6.00;75.67
53932;BME280;39844;52.496;13.482;2023-02-14T08:21:05;103502.75;;;6.02;75.57
53932;BME280;39844;52.496;13.482;2023-02-14T08:23:31;103507.25;;;6.04;75.42
53932;BME280;39844;52.496;13.482;2023-02-14T08:25:57;103508.41;;;6.09;75.17
53932;BME280;39844;52.496;13.482;2023-02-14T08:28:22;103509.41;;;6.11;75.33
53932;BME280;39844;52.496;13.482;2023-02-14T08:30:48;103515.69;;;6.15;75.19
53932;BME280;39844;52.496;13.482;2023-02-14T08:33:13;103517.47;;;6.16;75.26
53932;BME280;39844;52.496;13.482;2023-02-14T08:35:39;103520.34;;;6.20;75.80
53932;BME280;39844;52.496;13.482;2023-02-14T08:38:04;103525.56;;;6.20;75.33
53932;BME280;39844;52.496;13.482;2023-02-14T08:40:30;103518.56;;;6.19;74.58
53932;BME280;39844;52.496;13.482;2023-02-14T08:42:55;103516.75;;;6.18;74.41
53932;BME280;39844;52.496;13.482;2023-02-14T08:45:21;103523.78;;;6.19;75.04
53932;BME280;39844;52.496;13.482;2023-02-14T08:47:47;103521.38;;;6.22;75.19
53932;BME280;39844;52.496;13.482;2023-02-14T08:50:14;103522.34;;;6.24;74.84
53932;BME280;39844;52.496;13.482;2023-02-14T08:52:40;103534.75;;;6.28;74.49
53932;BME280;39844;52.496;13.482;2023-02-14T08:55:06;103529.72;;;6.31;74.73
53932;BME280;39844;52.496;13.482;2023-02-14T08:57:31;103530.81;;;6.35;74.31
53932;BME280;39844;52.496;13.482;2023-02-14T08:59:57;103523.94;;;6.37;74.44
53932;BME280;39844;52.496;13.482;2023-02-14T09:02:22;103522.50;;;6.42;74.76
53932;BME280;39844;52.496;13.482;2023-02-14T09:04:48;103520.16;;;6.47;74.23
53932;BME280;39844;52.496;13.482;2023-02-14T09:07:13;103525.56;;;6.50;74.03
53932;BME280;39844;52.496;13.482;2023-02-14T09:09:39;103520.53;;;6.53;73.89
53932;BME280;39844;52.496;13.482;2023-02-14T09:12:05;103522.31;;;6.54;73.69
53932;BME280;39844;52.496;13.482;2023-02-14T09:14:39;103522.31;;;6.54;73.10
53932;BME280;39844;52.496;13.482;2023-02-14T09:17:05;103527.63;;;6.55;73.13
53932;BME280;39844;52.496;13.482;2023-02-14T09:19:35;103528.59;;;6.57;73.46
53932;BME280;39844;52.496;13.482;2023-02-14T09:22:01;103534.00;;;6.60;73.83
53932;BME280;39844;52.496;13.482;2023-02-14T09:24:27;103526.06;;;6.59;72.75
53932;BME280;39844;52.496;13.482;2023-02-14T09:26:53;103524.28;;;6.58;73.00
53932;BME280;39844;52.496;13.482;2023-02-14T09:29:18;103531.41;;;6.60;73.19
53932;BME280;39844;52.496;13.482;2023-02-14T09:31:43;103534.19;;;6.63;73.52
53932;BME280;39844;52.496;13.482;2023-02-14T09:34:09;103526.44;;;6.65;73.41
53932;BME280;39844;52.496;13.482;2023-02-14T09:36:34;103528.31;;;6.67;72.99
53932;BME280;39844;52.496;13.482;2023-02-14T09:38:59;103525.78;;;6.69;73.11
53932;BME280;39844;52.496;13.482;2023-02-14T09:44:07;103519.53;;;6.81;73.44
53932;BME280;39844;52.496;13.482;2023-02-14T09:46:40;103524.88;;;6.83;72.45
53932;BME280;39844;52.496;13.482;2023-02-14T09:49:16;103525.22;;;6.89;72.78
53932;BME280;39844;52.496;13.482;2023-02-14T09:51:46;103531.59;;;6.94;72.53
53932;BME280;39844;52.496;13.482;2023-02-14T09:54:18;103535.19;;;6.96;72.37
53932;BME280;39844;52.496;13.482;2023-02-14T10:01:58;103538.09;;;7.17;72.45
53932;BME280;39844;52.496;13.482;2023-02-14T10:04:37;103529.53;;;7.19;71.41
53932;BME280;39844;52.496;13.482;2023-02-14T10:12:31;103523.56;;;7.22;71.23
53932;BME280;39844;52.496;13.482;2023-02-14T10:15:00;103523.81;;;7.26;70.75
53932;BME280;39844;52.496;13.482;2023-02-14T10:20:03;103523.31;;;7.33;70.29
53932;BME280;39844;52.496;13.482;2023-02-14T10:22:39;103521.84;;;7.38;69.82
53932;BME280;39844;52.496;13.482;2023-02-14T10:25:20;103524.06;;;7.47;70.38
53932;BME280;39844;52.496;13.482;2023-02-14T10:27:47;103524.31;;;7.51;69.61
53932;BME280;39844;52.496;13.482;2023-02-14T10:33:04;103520.41;;;7.59;69.37
53932;BME280;39844;52.496;13.482;2023-02-14T10:35:57;103512.63;;;7.61;69.10
53932;BME280;39844;52.496;13.482;2023-02-14T10:38:56;103509.28;;;7.63;68.81
53932;BME280;39844;52.496;13.482;2023-02-14T10:41:59;103505.84;;;7.64;68.23
53932;BME280;39844;52.496;13.482;2023-02-14T10:47:09;103500.19;;;7.73;68.31
53932;BME280;39844;52.496;13.482;2023-02-14T10:49:55;103497.84;;;7.78;68.22
53932;BME280;39844;52.496;13.482;2023-02-14T10:52:27;103505.56;;;7.76;67.52
53932;BME280;39844;52.496;13.482;2023-02-14T10:54:59;103501.31;;;7.78;67.75
53932;BME280;39844;52.496;13.482;2023-02-14T10:57:31;103505.00;;;7.82;67.71
53932;BME280;39844;52.496;13.482;2023-02-14T11:00:04;103501.72;;;7.86;66.87
53932;BME280;39844;52.496;13.482;2023-02-14T11:02:33;103498.34;;;7.88;66.75
53932;BME280;39844;52.496;13.482;2023-02-14T11:05:02;103507.28;;;7.92;67.36
53932;BME280;39844;52.496;13.482;2023-02-14T11:07:29;103498.63;;;7.93;67.49
53932;BME280;39844;52.496;13.482;2023-02-14T11:09:55;103494.41;;;7.96;67.06
53932;BME280;39844;52.496;13.482;2023-02-14T11:12:35;103496.06;;;7.94;66.64
53932;BME280;39844;52.496;13.482;2023-02-14T11:15:19;103493.50;;;7.96;67.07
53932;BME280;39844;52.496;13.482;2023-02-14T11:17:45;103495.31;;;7.97;67.26
53932;BME280;39844;52.496;13.482;2023-02-14T11:20:24;103488.44;;;7.99;67.15
53932;BME280;39844;52.496;13.482;2023-02-14T11:22:50;103487.81;;;8.03;66.99
53932;BME280;39844;52.496;13.482;2023-02-14T11:25:22;103483.22;;;7.99;66.62
53932;BME280;39844;52.496;13.482;2023-02-14T11:28:11;103483.97;;;7.96;66.63
53932;BME280;39844;52.496;13.482;2023-02-14T11:30:40;103486.91;;;8.02;67.52
53932;BME280;39844;52.496;13.482;2023-02-14T11:33:11;103487.97;;;8.06;67.16
53932;BME280;39844;52.496;13.482;2023-02-14T11:35:37;103479.13;;;8.04;66.98
53932;BME280;39844;52.496;13.482;2023-02-14T11:38:06;103489.56;;;8.04;66.50
53932;BME280;39844;52.496;13.482;2023-02-14T11:40:53;103483.53;;;8.05;67.04
53932;BME280;39844;52.496;13.482;2023-02-14T11:43:29;103474.19;;;8.10;67.45
53932;BME280;39844;52.496;13.482;2023-02-14T11:46:23;103478.63;;;8.11;66.38
53932;BME280;39844;52.496;13.482;2023-02-14T11:48:58;103475.16;;;8.12;66.63
53932;BME280;39844;52.496;13.482;2023-02-14T11:51:32;103472.56;;;8.12;66.23
53932;BME280;39844;52.496;13.482;2023-02-14T11:54:00;103468.16;;;8.11;66.65
53932;BME280;39844;52.496;13.482;2023-02-14T11:56:43;103469.94;;;8.12;66.31
53932;BME280;39844;52.496;13.482;2023-02-14T11:59:11;103465.53;;;8.11;65.79
53932;BME280;39844;52.496;13.482;2023-02-14T12:01:38;103468.97;;;8.10;66.56
53932;BME280;39844;52.496;13.482;2023-02-14T12:04:06;103469.94;;;8.12;66.70
53932;BME280;39844;52.496;13.482;2023-02-14T12:06:36;103465.63;;;8.12;65.96
53932;BME280;39844;52.496;13.482;2023-02-14T12:12:00;103447.97;;;8.08;64.35
53932;BME280;39844;52.496;13.482;2023-02-14T12:14:43;103447.66;;;8.02;65.29
53932;BME280;39844;52.496;13.482;2023-02-14T12:19:58;103443.81;;;7.96;65.59
53932;BME280;39844;52.496;13.482;2023-02-14T12:22:32;103433.13;;;7.91;65.70
53932;BME280;39844;52.496;13.482;2023-02-14T12:25:26;103428.66;;;7.89;65.71
53932;BME280;39844;52.496;13.482;2023-02-14T12:28:00;103427.00;;;7.91;66.28
53932;BME280;39844;52.496;13.482;2023-02-14T12:30:30;103423.91;;;7.98;67.07
53932;BME280;39844;52.496;13.482;2023-02-14T12:32:56;103425.94;;;8.03;66.38
53932;BME280;39844;52.496;13.482;2023-02-14T12:35:49;103419.19;;;8.08;66.15
53932;BME280;39844;52.496;13.482;2023-02-14T12:43:55;103400.47;;;8.01;65.72
53932;BME280;39844;52.496;13.482;2023-02-14T12:46:40;103392.50;;;7.98;65.67
53932;BME280;39844;52.496;13.482;2023-02-14T12:52:29;103392.34;;;7.95;65.87
53932;BME280;39844;52.496;13.482;2023-02-14T12:58:01;103392.50;;;7.98;66.43
53932;BME280;39844;52.496;13.482;2023-02-14T13:05:59;103379.66;;;8.02;66.71
53932;BME280;39844;52.496;13.482;2023-02-14T13:09:08;103378.00;;;8.04;66.81
53932;BME280;39844;52.496;13.482;2023-02-14T13:17:38;103376.81;;;7.98;66.92
53932;BME280;39844;52.496;13.482;2023-02-14T13:20:41;103368.97;;;7.98;67.31
53932;BME280;39844;52.496;13.482;2023-02-14T13:25:51;103371.28;;;8.09;66.58
53932;BME280;39844;52.496;13.482;2023-02-14T13:28:20;103364.25;;;8.08;66.33
53932;BME280;39844;52.496;13.482;2023-02-14T13:30:46;103362.31;;;8.04;66.29
53932;BME280;39844;52.496;13.482;2023-02-14T13:33:34;103356.00;;;8.01;66.20
53932;BME280;39844;52.496;13.482;2023-02-14T13:36:02;103357.66;;;7.99;66.17
53932;BME280;39844;52.496;13.482;2023-02-14T13:38:30;103356.69;;;7.97;66.67
53932;BME280;39844;52.496;13.482;2023-02-14T13:40:57;103355.75;;;7.95;66.49
53932;BME280;39844;52.496;13.482;2023-02-14T13:46:13;103359.31;;;7.97;66.56
53932;BME280;39844;52.496;13.482;2023-02-14T13:48:39;103359.25;;;7.95;67.01
53932;BME280;39844;52.496;13.482;2023-02-14T13:51:07;103362.63;;;7.93;67.02
53932;BME280;39844;52.496;13.482;2023-02-14T13:53:47;103357.28;;;7.91;67.51
53932;BME280;39844;52.496;13.482;2023-02-14T14:01:33;103354.25;;;7.82;67.71
53932;BME280;39844;52.496;13.482;2023-02-14T14:17:32;103352.59;;;7.84;68.07
53932;BME280;39844;52.496;13.482;2023-02-14T14:19:59;103347.38;;;7.84;67.71
53932;BME280;39844;52.496;13.482;2023-02-14T14:22:26;103346.28;;;7.81;67.41
53932;BME280;39844;52.496;13.482;2023-02-14T14:27:39;103340.25;;;7.82;68.25
53932;BME280;39844;52.496;13.482;2023-02-14T14:30:15;103337.44;;;7.77;68.49
53932;BME280;39844;52.496;13.482;2023-02-14T14:32:42;103336.38;;;7.74;68.26
53932;BME280;39844;52.496;13.482;2023-02-14T14:37:45;103335.41;;;7.72;69.00
53932;BME280;39844;52.496;13.482;2023-02-14T14:40:37;103336.88;;;7.67;68.71
53932;BME280;39844;52.496;13.482;2023-02-14T14:43:19;103343.78;;;7.64;68.07
53932;BME280;39844;52.496;13.482;2023-02-14T14:45:48;103340.94;;;7.60;68.59
53932;BME280;39844;52.496;13.482;2023-02-14T14:48:23;103330.97;;;7.53;68.78
53932;BME280;39844;52.496;13.482;2023-02-14T14:50:50;103328.06;;;7.47;69.03
53932;BME280;39844;52.496;13.482;2023-02-14T14:53:26;103323.47;;;7.43;69.08
53932;BME280;39844;52.496;13.482;2023-02-14T14:55:53;103329.44;;;7.40;69.42
53932;BME280;39844;52.496;13.482;2023-02-14T14:58:46;103325.06;;;7.39;69.75
53932;BME280;39844;52.496;13.482;2023-02-14T15:01:26;103326.69;;;7.37;70.16
53932;BME280;39844;52.496;13.482;2023-02-14T15:03:51;103328.31;;;7.35;70.05
53932;BME280;39844;52.496;13.482;2023-02-14T15:06:21;103324.69;;;7.32;70.31
53932;BME280;39844;52.496;13.482;2023-02-14T15:08:47;103320.94;;;7.27;70.11
53932;BME280;39844;52.496;13.482;2023-02-14T15:11:23;103324.28;;;7.24;70.05